Orlando Melbourne International Airport

Date: 2024-06-11 09:53:00Z

Type: METAR

Weather: Light Rain

Winds: 230° at 5 kts

Visibility: 6

Ceiling (AGL FT): Clouds SCATTERED at 2700, BROKEN at 3200, OVERCAST at 5000, BROKEN at 15000

RAW METAR: KMLB 110953Z 23005KT 6SM -RA BR SCT027 BKN032 OVC050 26/24 A2987 RMK AO2 RAB25 SLP115 P0001 T02560239

project-image